Data for 06/12/2014

Time Sea-Level Adjusted Pressure Absolute Pressure Temperature Relative Humidity Dew Point   
(mb) (inHg) (mb) (inHg) (C) (F) (%) (C) (F)
00:05 1020 30.12 849 25.07 9.1 48.3 71 4 39.2
00:10 1020 30.12 849 25.07 9.1 48.3 71 4.1 39.4
00:15 1020 30.12 849 25.07 9 48.2 72 4.3 39.7
00:20 1020 30.12 849 25.07 8.9 48 73 4.3 39.7
00:25 1020 30.12 849 25.07 8.9 48 73 4.3 39.8
00:30 1020 30.12 849 25.07 8.8 47.9 74 4.4 39.9
00:35 1020 30.12 849 25.07 8.8 47.9 74 4.4 39.9
00:40 1020 30.12 849 25.07 8.8 47.8 74 4.4 40
00:45 1020 30.12 849 25.07 8.8 47.8 74 4.4 39.9
00:50 1020 30.12 849 25.07 8.8 47.8 74 4.4 39.9
00:55 1020 30.12 849 25.07 8.8 47.8 74 4.4 40
01:00 1020 30.12 849 25.07 8.7 47.7 75 4.5 40.1
01:05 1020 30.12 849 25.07 8.7 47.6 75 4.5 40.1
01:10 1020 30.12 849 25.07 8.6 47.4 76 4.5 40.2
01:15 1019 30.09 849 25.07 8.6 47.4 76 4.5 40.1
01:20 1019 30.09 849 25.07 8.5 47.3 76 4.5 40.1
01:25 1019 30.09 849 25.07 8.5 47.2 76 4.5 40.1
01:30 1019 30.09 849 25.07 8.5 47.2 76 4.5 40.1
01:35 1019 30.09 849 25.07 8.5 47.2 76 4.5 40.1
01:40 1019 30.09 849 25.07 8.5 47.2 76 4.5 40.1
01:45 1019 30.09 849 25.07 8.4 47.2 76 4.4 39.9
01:50 1020 30.12 849 25.07 8.4 47.2 75 4.4 39.9
01:55 1019 30.09 849 25.07 8.4 47.2 76 4.5 40
02:00 1019 30.09 849 25.07 8.4 47 76 4.4 39.9
02:05 1019 30.09 849 25.07 8.3 46.9 77 4.4 39.9
02:10 1019 30.09 849 25.07 8.2 46.7 77 4.4 39.9
02:15 1019 30.09 849 25.07 8.1 46.6 77 4.3 39.8
02:20 1019 30.09 849 25.07 8.1 46.6 76 4.3 39.7
02:25 1019 30.09 849 25.07 8.1 46.6 76 4.2 39.6
02:30 1019 30.09 849 25.07 8 46.5 77 4.2 39.5
02:35 1019 30.09 848 25.04 8 46.5 76 4.1 39.4
02:40 1019 30.09 848 25.04 8 46.5 76 4.1 39.4
02:45 1019 30.09 848 25.04 8 46.5 76 4.1 39.4
02:50 1019 30.09 848 25.04 7.9 46.3 77 4.1 39.4
02:55 1019 30.09 848 25.04 7.9 46.2 77 4.1 39.4
03:00 1019 30.09 848 25.04 7.9 46.1 77 4.1 39.4
03:05 1019 30.09 848 25.04 7.8 46.1 78 4.1 39.5
03:10 1019 30.09 848 25.04 7.8 46 77 4.1 39.3
03:15 1019 30.09 848 25.04 7.7 45.9 77 4.1 39.3
03:20 1019 30.09 848 25.04 7.7 45.8 78 4 39.3
03:25 1019 30.09 848 25.04 7.6 45.6 78 4 39.2
03:30 1019 30.09 848 25.04 7.6 45.6 78 4 39.1
03:35 1019 30.09 848 25.04 7.5 45.5 78 3.9 39.1
03:40 1019 30.09 848 25.04 7.4 45.4 78 3.9 39
03:45 1019 30.09 848 25.04 7.4 45.3 79 3.9 39.1
03:50 1019 30.09 848 25.04 7.4 45.3 79 4 39.1
03:55 1019 30.09 848 25.04 7.4 45.3 79 3.9 39.1
04:00 1019 30.09 848 25.04 7.4 45.3 78 3.8 38.9
04:05 1019 30.09 848 25.04 7.5 45.5 77 3.8 38.9
04:10 1019 30.09 848 25.04 7.6 45.7 76 3.7 38.7
04:15 1019 30.09 848 25.04 7.6 45.7 77 3.8 38.9
04:20 1019 30.09 848 25.04 7.6 45.6 78 3.9 39
04:25 1019 30.09 848 25.04 7.5 45.4 78 4 39.1
04:30 1019 30.09 848 25.04 7.3 45.2 78 3.8 38.9
04:35 1019 30.09 848 25.04 7.4 45.4 77 3.7 38.7
04:40 1019 30.09 848 25.04 7.5 45.5 77 3.7 38.7
04:45 1019 30.09 848 25.04 7.6 45.7 77 3.8 38.8
04:50 1019 30.09 848 25.04 7.7 45.8 76 3.7 38.6
04:55 1019 30.09 848 25.04 7.7 45.9 76 3.7 38.7
05:00 1019 30.09 848 25.04 7.8 46 76 3.8 38.9
05:05 1019 30.09 848 25.04 7.7 45.9 76 3.7 38.6
05:10 1019 30.09 848 25.04 7.7 45.9 76 3.8 38.9
05:15 1019 30.09 848 25.04 7.7 45.8 76 3.8 38.8
05:20 1019 30.09 848 25.04 7.8 46 75 3.7 38.7
05:25 1019 30.09 848 25.04 7.9 46.2 75 3.7 38.7
05:30 1019 30.09 848 25.04 7.9 46.3 75 3.7 38.7
05:35 1019 30.09 848 25.04 7.9 46.1 75 3.7 38.7
05:40 1019 30.09 848 25.04 7.8 46.1 75 3.7 38.7
05:45 1019 30.09 848 25.04 7.9 46.2 75 3.7 38.6
05:50 1019 30.09 848 25.04 7.9 46.3 75 3.7 38.7
05:55 1019 30.09 848 25.04 7.9 46.2 75 3.7 38.6
06:00 1019 30.09 848 25.04 7.9 46.2 75 3.8 38.8
06:05 1019 30.09 848 25.04 7.9 46.1 75 3.7 38.6
06:10 1019 30.09 848 25.04 7.9 46.3 75 3.7 38.7
06:15 1019 30.09 848 25.04 8 46.3 75 3.8 38.8
06:20 1019 30.09 848 25.04 8.1 46.6 74 3.7 38.7
06:25 1019 30.09 848 25.04 8.2 46.7 74 3.8 38.8
06:30 1019 30.09 848 25.04 8.3 46.9 74 3.8 38.9
06:35 1019 30.09 848 25.04 8.4 47.1 73 3.9 39
06:40 1019 30.09 848 25.04 8.5 47.3 73 3.9 39.1
06:45 1019 30.09 848 25.04 8.7 47.6 72 3.9 39.1
06:50 1019 30.09 848 25.04 8.9 48 71 3.9 39.1
06:55 1019 30.09 848 25.04 9 48.1 72 4.1 39.4
07:00 1019 30.09 848 25.04 9 48.2 71 4 39.1
07:05 1019 30.09 848 25.04 9.1 48.5 70 3.9 39
07:10 1018 30.06 848 25.04 9.2 48.6 69 3.9 38.9
07:15 1018 30.06 848 25.04 9.4 48.8 69 4 39.2
07:20 1018 30.06 848 25.04 9.5 49 68 4 39.1
07:25 1018 30.06 848 25.04 9.5 49.1 69 4.1 39.3
07:30 1018 30.06 848 25.04 9.6 49.3 67 3.9 39
07:35 1018 30.06 848 25.04 9.6 49.2 69 4.1 39.4
07:40 1018 30.06 848 25.04 9.7 49.4 68 4.1 39.4
07:45 1018 30.06 847 25.01 9.8 49.6 67 4 39.1
07:50 1018 30.06 847 25.01 10 49.9 67 4 39.3
07:55 1018 30.06 847 25.01 10.1 50.3 66 4.1 39.4
08:00 1018 30.06 847 25.01 10.1 50.2 67 4.2 39.6
08:05 1018 30.06 847 25.01 10.1 50.1 66 4.1 39.4
08:10 1018 30.06 847 25.01 10.4 50.6 65 4.2 39.6
08:15 1018 30.06 847 25.01 10.3 50.5 66 4.2 39.6
08:20 1018 30.06 847 25.01 10.4 50.7 65 4.1 39.3
08:25 1018 30.06 847 25.01 10.7 51.2 63 3.9 39.1
08:30 1018 30.06 847 25.01 10.8 51.4 64 4.2 39.6
08:35 1018 30.06 847 25.01 10.8 51.4 63 4.1 39.4
08:40 1018 30.06 847 25.01 11 51.8 63 4.2 39.6
08:45 1018 30.06 847 25.01 10.8 51.5 64 4.2 39.6
08:50 1018 30.06 847 25.01 11 51.7 63 4.2 39.5
08:55 1018 30.06 847 25.01 11.3 52.3 62 4.2 39.6
09:00 1018 30.06 847 25.01 11.3 52.4 61 4.2 39.6
09:05 1018 30.06 847 25.01 11.4 52.5 61 4.1 39.3
09:10 1017 30.03 847 25.01 11.7 53 61 4.6 40.2
09:15 1017 30.03 847 25.01 11.6 52.9 60 4.3 39.7
09:20 1017 30.03 847 25.01 11.9 53.3 60 4.4 39.9
09:25 1017 30.03 846 24.98 11.9 53.5 60 4.5 40
09:30 1017 30.03 846 24.98 12 53.6 60 4.5 40.1
09:35 1017 30.03 846 24.98 12.3 54.2 58 4.3 39.7
09:40 1017 30.03 846 24.98 12.4 54.3 58 4.5 40
09:45 1017 30.03 846 24.98 12.7 54.8 57 4.5 40.1
09:50 1017 30.03 846 24.98 12.9 55.3 56 4.5 40.1
09:55 1017 30.03 846 24.98 13.3 55.9 56 4.8 40.6
10:00 1017 30.03 846 24.98 13.2 55.8 55 4.6 40.2
10:05 1017 30.03 846 24.98 13.3 55.9 55 4.4 40
10:10 1017 30.03 846 24.98 13.7 56.6 55 4.8 40.7
10:15 1017 30.03 846 24.98 13.8 56.8 54 4.6 40.3
10:20 1017 30.03 846 24.98 14.1 57.4 54 4.9 40.8
10:25 1017 30.03 846 24.98 14.2 57.5 52 4.6 40.3
10:30 1016 30 846 24.98 14.4 57.8 53 5 40.9
10:35 1016 30 846 24.98 14.3 57.8 53 4.9 40.8
10:40 1016 30 846 24.98 14.3 57.8 53 4.9 40.8
10:45 1016 30 845 24.95 14.5 58.1 52 4.8 40.7
10:50 1016 30 845 24.95 14.8 58.6 51 4.9 40.9
10:55 1016 30 845 24.95 15.5 59.9 49 4.9 40.9
11:00 1016 30 845 24.95 15.7 60.2 49 5.2 41.3
11:05 1016 30 845 24.95 15.6 60.1 50 5.3 41.5
11:10 1016 30 845 24.95 15.9 60.6 49 5.3 41.6
11:15 1016 30 845 24.95 15.8 60.5 50 5.5 42
11:20 1016 30 845 24.95 16.4 61.5 50 6 42.9
11:25 1016 30 845 24.95 16.4 61.5 49 5.6 42.1
11:30 1015 29.97 845 24.95 16.5 61.7 49 5.7 42.3
11:35 1015 29.97 845 24.95 16.8 62.3 48 5.7 42.3
11:40 1015 29.97 845 24.95 16.8 62.2 47 5.4 41.8
11:45 1015 29.97 844 24.92 16.7 62.1 46 5.2 41.3
11:50 1015 29.97 844 24.92 17.4 63.3 45 5.5 41.9
11:55 1015 29.97 844 24.92 17.4 63.4 45 5.5 42
12:00 1015 29.97 844 24.92 17.1 62.8 46 5.6 42.1
12:05 1015 29.97 844 24.92 17.1 62.8 45 5.3 41.6
12:10 1015 29.97 844 24.92 17.4 63.3 45 5.4 41.7
12:15 1015 29.97 844 24.92 17.4 63.2 46 5.7 42.3
12:20 1015 29.97 844 24.92 17.1 62.7 46 5.5 41.8
12:25 1014 29.94 844 24.92 17.2 62.9 46 5.6 42
12:30 1014 29.94 844 24.92 17.5 63.4 46 5.9 42.5
12:35 1014 29.94 844 24.92 17.7 63.9 46 5.9 42.7
12:40 1014 29.94 844 24.92 17.7 63.8 45 5.7 42.2
12:45 1014 29.94 844 24.92 17.4 63.4 46 5.7 42.2
12:50 1014 29.94 844 24.92 17.4 63.3 44 5 40.9
12:55 1014 29.94 844 24.92 17.4 63.4 44 5.3 41.5
13:00 1014 29.94 844 24.92 17.3 63.2 44 5.2 41.4
13:05 1014 29.94 843 24.89 17.3 63.1 46 5.6 42.1
13:10 1014 29.94 843 24.89 17.2 63 46 5.7 42.2
13:15 1014 29.94 843 24.89 17.2 62.9 46 5.7 42.2
13:20 1014 29.94 843 24.89 17 62.7 47 5.7 42.2
13:25 1014 29.94 843 24.89 17.2 62.9 47 5.8 42.4
13:30 1014 29.94 843 24.89 17.4 63.2 46 5.8 42.4
13:35 1014 29.94 843 24.89 17.5 63.6 45 5.7 42.2
13:40 1014 29.94 843 24.89 17.9 64.1 45 5.9 42.6
13:45 1013 29.91 843 24.89 17.7 63.9 46 6.2 43.2
13:50 1013 29.91 842 24.86 17.4 63.2 48 6.2 43.2
13:55 1013 29.91 842 24.86 17.6 63.6 47 6.4 43.5
14:00 1013 29.91 842 24.86 18 64.4 46 6.2 43.2
14:05 1013 29.91 842 24.86 18.1 64.6 45 6.2 43.1
14:10 1013 29.91 842 24.86 17.9 64.2 46 6.2 43.2
14:15 1013 29.91 842 24.86 18.1 64.7 46 6.4 43.5
14:20 1013 29.91 842 24.86 18.3 64.9 46 6.5 43.7
14:25 1013 29.91 842 24.86 18.2 64.8 47 6.7 44.1
14:30 1013 29.91 842 24.86 18.2 64.7 48 7 44.5
14:35 1013 29.91 842 24.86 18.1 64.6 47 6.8 44.2
14:40 1012 29.88 842 24.86 18.4 65.1 49 7.5 45.5
14:45 1012 29.88 842 24.86 18 64.4 50 7.5 45.6
14:50 1012 29.88 842 24.86 17.8 64 51 7.6 45.7
14:55 1012 29.88 841 24.83 17.7 63.9 51 7.6 45.6
15:00 1012 29.88 841 24.83 17.8 64.1 50 7.5 45.5
15:05 1012 29.88 841 24.83 18 64.4 51 7.8 46
15:10 1012 29.88 841 24.83 18 64.4 51 7.7 45.9
15:15 1012 29.88 841 24.83 18 64.5 51 8 46.4
15:20 1012 29.88 841 24.83 18 64.4 52 8.1 46.5
15:25 1012 29.88 841 24.83 17.9 64.2 52 8.1 46.5
15:30 1012 29.88 841 24.83 17.9 64.2 52 8.1 46.5
15:35 1012 29.88 841 24.83 17.9 64.3 52 8 46.4
15:40 1012 29.88 841 24.83 18.1 64.7 51 8 46.5
15:45 1012 29.88 841 24.83 18.2 64.8 51 8.1 46.6
15:50 1012 29.88 841 24.83 18.2 64.8 51 8 46.4
15:55 1011 29.85 841 24.83 18.2 64.8 51 8.1 46.5
16:00 1011 29.85 841 24.83 18.3 64.9 51 8.1 46.5
16:05 1011 29.85 841 24.83 18.5 65.2 50 8 46.3
16:10 1011 29.85 840 24.81 18.6 65.4 49 7.8 46.1
16:15 1011 29.85 840 24.81 18.7 65.6 50 8 46.5
16:20 1011 29.85 840 24.81 18.7 65.6 49 7.9 46.1
16:25 1011 29.85 840 24.81 18.9 66 49 8 46.4
16:30 1011 29.85 840 24.81 18.9 65.9 47 7.6 45.6
16:35 1011 29.85 840 24.81 19.2 66.5 47 7.6 45.8
16:40 1011 29.85 840 24.81 19.4 66.9 47 7.8 46
16:45 1011 29.85 840 24.81 19.2 66.6 46 7.6 45.7
16:50 1010 29.83 840 24.81 19.3 66.7 46 7.5 45.6
16:55 1010 29.83 840 24.81 19.4 66.9 45 7.4 45.3
17:00 1010 29.83 840 24.81 19.8 67.6 45 7.7 45.8
17:05 1010 29.83 839 24.78 20 68 45 7.8 46
17:10 1010 29.83 839 24.78 20 68 44 7.5 45.5
17:15 1010 29.83 839 24.78 19.8 67.6 45 7.6 45.6
17:20 1010 29.83 839 24.78 19.6 67.3 44 7.3 45.2
17:25 1010 29.83 839 24.78 19.6 67.3 44 7.2 45
17:30 1010 29.83 839 24.78 19.5 67 45 7.4 45.4
17:35 1010 29.83 839 24.78 19.6 67.3 44 7.2 45
17:40 1009 29.8 839 24.78 19.7 67.4 45 7.5 45.4
17:45 1010 29.83 839 24.78 19.5 67 44 7.1 44.7
17:50 1009 29.8 839 24.78 19.4 67 45 7.4 45.4
17:55 1009 29.8 839 24.78 19.3 66.7 46 7.4 45.3
18:00 1009 29.8 839 24.78 19.2 66.5 46 7.5 45.4
18:05 1009 29.8 839 24.78 19.2 66.5 46 7.4 45.4
18:10 1009 29.8 839 24.78 19.2 66.5 46 7.3 45.2
18:15 1009 29.8 839 24.78 19.1 66.4 47 7.5 45.6
18:20 1009 29.8 838 24.75 19.1 66.3 46 7.4 45.3
18:25 1009 29.8 838 24.75 19 66.2 47 7.7 45.8
18:30 1010 29.83 839 24.78 18.9 66 47 7.5 45.5
18:35 1010 29.83 839 24.78 18.9 66 48 7.7 45.8
18:40 1009 29.8 839 24.78 18.8 65.8 48 7.6 45.8
18:45 1009 29.8 839 24.78 18.8 65.8 48 7.6 45.6
18:50 1009 29.8 839 24.78 18.8 65.8 48 7.6 45.7
18:55 1009 29.8 839 24.78 18.8 65.8 47 7.5 45.5
19:00 1009 29.8 838 24.75 18.8 65.8 48 7.6 45.8
19:05 1009 29.8 839 24.78 18.7 65.7 48 7.7 45.9
19:10 1009 29.8 838 24.75 18.6 65.5 49 7.7 45.9
19:15 1009 29.8 839 24.78 18.6 65.4 49 7.8 46.1
19:20 1009 29.8 839 24.78 18.4 65.2 50 7.9 46.1
19:25 1009 29.8 838 24.75 18.4 65.2 49 7.8 46
19:30 1009 29.8 839 24.78 18.5 65.3 49 7.8 46.1
19:35 1010 29.83 839 24.78 18.4 65.1 50 7.8 46
19:40 1009 29.8 839 24.78 18.4 65.1 50 7.8 46.1
19:45 1009 29.8 838 24.75 18.3 64.9 50 7.8 46
19:50 1009 29.8 839 24.78 18.2 64.8 50 7.9 46.2
19:55 1009 29.8 838 24.75 18.2 64.8 50 7.8 46.1
20:00 1009 29.8 838 24.75 18.2 64.7 51 7.9 46.3
20:05 1009 29.8 838 24.75 18.1 64.5 52 8.1 46.5
20:10 1009 29.8 838 24.75 18 64.4 52 8 46.4
20:15 1009 29.8 838 24.75 17.9 64.3 52 8.2 46.7
20:20 1009 29.8 838 24.75 17.8 64 53 8.2 46.8
20:25 1009 29.8 838 24.75 17.7 63.8 54 8.3 46.9
20:30 1009 29.8 838 24.75 17.5 63.5 54 8.3 46.9
20:35 1009 29.8 838 24.75 17.4 63.2 55 8.4 47.2
20:40 1009 29.8 838 24.75 17.2 62.9 56 8.5 47.3
20:45 1009 29.8 838 24.75 17 62.6 57 8.5 47.2
20:50 1009 29.8 838 24.75 17 62.6 57 8.4 47.1
20:55 1009 29.8 838 24.75 17 62.5 57 8.4 47.1
21:00 1009 29.8 838 24.75 17 62.5 57 8.4 47.1
21:05 1009 29.8 838 24.75 17 62.5 57 8.4 47.1
21:10 1009 29.8 838 24.75 16.9 62.4 57 8.5 47.3
21:15 1009 29.8 838 24.75 16.8 62.2 58 8.5 47.3
21:20 1009 29.8 838 24.75 16.7 62 58 8.5 47.3
21:25 1009 29.8 838 24.75 16.6 61.9 58 8.5 47.3
21:30 1009 29.8 838 24.75 16.5 61.6 60 8.7 47.6
21:35 1008 29.77 838 24.75 16.2 61.2 60 8.6 47.5
21:40 1009 29.8 838 24.75 16.2 61.1 61 8.7 47.7
21:45 1008 29.77 838 24.75 16 60.9 61 8.7 47.6
21:50 1008 29.77 838 24.75 16 60.8 61 8.5 47.3
21:55 1008 29.77 837 24.72 16.1 61 60 8.5 47.3
22:00 1008 29.77 837 24.72 16.2 61.1 60 8.6 47.4
22:05 1008 29.77 837 24.72 16.1 61 61 8.7 47.6
22:10 1008 29.77 837 24.72 16 60.8 61 8.5 47.4
22:15 1008 29.77 837 24.72 16.1 60.9 61 8.5 47.4
22:20 1008 29.77 837 24.72 16.1 61 60 8.5 47.3
22:25 1008 29.77 837 24.72 16.1 61 60 8.5 47.3
22:30 1008 29.77 837 24.72 16.1 61 60 8.4 47.1
22:35 1008 29.77 837 24.72 16.2 61.2 59 8.4 47.1
22:40 1008 29.77 837 24.72 16.2 61.2 60 8.5 47.3
22:45 1008 29.77 837 24.72 16.2 61.1 60 8.4 47.2
22:50 1008 29.77 837 24.72 16.1 61 60 8.3 47
22:55 1008 29.77 837 24.72 16.1 61 60 8.4 47.1
23:00 1008 29.77 837 24.72 16 60.9 60 8.4 47.1
23:05 1008 29.77 838 24.75 15.9 60.7 60 8.3 46.9
23:10 1008 29.77 837 24.72 15.8 60.5 61 8.4 47
23:15 1008 29.77 837 24.72 15.7 60.3 61 8.3 46.9
23:20 1008 29.77 837 24.72 15.6 60.1 61 8.3 47
23:25 1008 29.77 837 24.72 15.5 59.9 62 8.3 46.9
23:30 1008 29.77 837 24.72 15.5 59.9 61 8.2 46.7
23:35 1008 29.77 837 24.72 15.4 59.8 62 8.3 46.9
23:40 1008 29.77 837 24.72 15.3 59.5 63 8.3 46.9
23:45 1008 29.77 837 24.72 15.2 59.3 63 8.3 46.9
23:50 1008 29.77 837 24.72 15.1 59.1 63 8.2 46.8
23:55 1008 29.77 837 24.72 15 59 63 8.2 46.7
24:00 1008 29.77 837 24.72 15 59 63 8.2 46.8